sensor_id;sensor_type;location;lat;lon;timestamp;temperature;humidity
66594;DHT22;53450;42.584;23.366;2023-11-21T00:02:07;3.02;81.73
66594;DHT22;53450;42.584;23.366;2023-11-21T00:04:32;2.99;81.46
66594;DHT22;53450;42.584;23.366;2023-11-21T00:06:58;3.05;81.60
66594;DHT22;53450;42.584;23.366;2023-11-21T00:09:23;3.12;81.41
66594;DHT22;53450;42.584;23.366;2023-11-21T00:11:49;3.05;81.37
66594;DHT22;53450;42.584;23.366;2023-11-21T00:14:14;2.97;81.64
66594;DHT22;53450;42.584;23.366;2023-11-21T00:16:41;2.93;81.74
66594;DHT22;53450;42.584;23.366;2023-11-21T00:19:06;2.88;81.60
66594;DHT22;53450;42.584;23.366;2023-11-21T00:21:32;2.95;81.53
66594;DHT22;53450;42.584;23.366;2023-11-21T00:23:57;3.00;81.59
66594;DHT22;53450;42.584;23.366;2023-11-21T00:26:23;2.95;81.74
66594;DHT22;53450;42.584;23.366;2023-11-21T00:28:59;2.96;81.88
66594;DHT22;53450;42.584;23.366;2023-11-21T00:31:25;2.93;82.07
66594;DHT22;53450;42.584;23.366;2023-11-21T00:33:50;2.97;82.00
66594;DHT22;53450;42.584;23.366;2023-11-21T00:36:16;2.92;82.00
66594;DHT22;53450;42.584;23.366;2023-11-21T00:38:42;2.97;82.55
66594;DHT22;53450;42.584;23.366;2023-11-21T00:41:07;3.03;81.73
66594;DHT22;53450;42.584;23.366;2023-11-21T00:43:33;3.00;81.59
66594;DHT22;53450;42.584;23.366;2023-11-21T00:46:04;3.00;81.74
66594;DHT22;53450;42.584;23.366;2023-11-21T00:48:30;2.88;81.80
66594;DHT22;53450;42.584;23.366;2023-11-21T00:50:56;2.93;81.64
66594;DHT22;53450;42.584;23.366;2023-11-21T00:53:21;2.86;81.53
66594;DHT22;53450;42.584;23.366;2023-11-21T00:55:47;2.78;81.72
66594;DHT22;53450;42.584;23.366;2023-11-21T00:58:13;2.72;82.07
66594;DHT22;53450;42.584;23.366;2023-11-21T01:00:38;2.71;82.46
66594;DHT22;53450;42.584;23.366;2023-11-21T01:03:07;2.66;81.86
66594;DHT22;53450;42.584;23.366;2023-11-21T01:05:34;2.58;82.15
66594;DHT22;53450;42.584;23.366;2023-11-21T01:08:00;2.47;82.37
66594;DHT22;53450;42.584;23.366;2023-11-21T01:10:25;2.38;82.37
66594;DHT22;53450;42.584;23.366;2023-11-21T01:12:51;2.35;82.15
66594;DHT22;53450;42.584;23.366;2023-11-21T01:15:17;2.38;82.05
66594;DHT22;53450;42.584;23.366;2023-11-21T01:17:42;2.34;82.43
66594;DHT22;53450;42.584;23.366;2023-11-21T01:20:08;2.30;82.52
66594;DHT22;53450;42.584;23.366;2023-11-21T01:22:37;2.33;82.48
66594;DHT22;53450;42.584;23.366;2023-11-21T01:25:03;2.30;82.56
66594;DHT22;53450;42.584;23.366;2023-11-21T01:27:33;2.33;82.66
66594;DHT22;53450;42.584;23.366;2023-11-21T01:29:59;2.34;82.68
66594;DHT22;53450;42.584;23.366;2023-11-21T01:32:25;2.28;83.32
66594;DHT22;53450;42.584;23.366;2023-11-21T01:34:50;2.27;83.64
66594;DHT22;53450;42.584;23.366;2023-11-21T01:37:16;2.23;83.88
66594;DHT22;53450;42.584;23.366;2023-11-21T01:39:43;2.11;83.97
66594;DHT22;53450;42.584;23.366;2023-11-21T01:42:09;2.07;84.35
66594;DHT22;53450;42.584;23.366;2023-11-21T01:44:35;2.17;84.43
66594;DHT22;53450;42.584;23.366;2023-11-21T01:47:01;2.33;84.05
66594;DHT22;53450;42.584;23.366;2023-11-21T01:49:32;2.38;84.01
66594;DHT22;53450;42.584;23.366;2023-11-21T01:51:59;2.40;83.99
66594;DHT22;53450;42.584;23.366;2023-11-21T01:54:25;2.41;83.95
66594;DHT22;53450;42.584;23.366;2023-11-21T01:56:50;2.35;83.99
66594;DHT22;53450;42.584;23.366;2023-11-21T01:59:20;2.31;83.79
66594;DHT22;53450;42.584;23.366;2023-11-21T02:01:49;2.30;83.77
66594;DHT22;53450;42.584;23.366;2023-11-21T02:04:19;2.26;83.81
66594;DHT22;53450;42.584;23.366;2023-11-21T02:06:46;2.20;83.31
66594;DHT22;53450;42.584;23.366;2023-11-21T02:09:12;2.14;83.57
66594;DHT22;53450;42.584;23.366;2023-11-21T02:11:40;2.18;83.72
66594;DHT22;53450;42.584;23.366;2023-11-21T02:14:06;2.21;83.95
66594;DHT22;53450;42.584;23.366;2023-11-21T02:16:34;2.23;84.14
66594;DHT22;53450;42.584;23.366;2023-11-21T02:19:01;2.27;83.90
66594;DHT22;53450;42.584;23.366;2023-11-21T02:21:29;2.26;83.72
66594;DHT22;53450;42.584;23.366;2023-11-21T02:23:55;2.27;83.91
66594;DHT22;53450;42.584;23.366;2023-11-21T02:26:21;2.28;83.75
66594;DHT22;53450;42.584;23.366;2023-11-21T02:28:47;2.26;83.77
66594;DHT22;53450;42.584;23.366;2023-11-21T02:31:13;2.33;83.86
66594;DHT22;53450;42.584;23.366;2023-11-21T02:33:38;2.30;83.21
66594;DHT22;53450;42.584;23.366;2023-11-21T02:36:05;2.18;83.34
66594;DHT22;53450;42.584;23.366;2023-11-21T02:38:30;2.14;83.50
66594;DHT22;53450;42.584;23.366;2023-11-21T02:40:57;2.13;83.85
66594;DHT22;53450;42.584;23.366;2023-11-21T02:43:24;2.18;84.11
66594;DHT22;53450;42.584;23.366;2023-11-21T02:45:50;2.20;84.44
66594;DHT22;53450;42.584;23.366;2023-11-21T02:48:15;2.24;83.85
66594;DHT22;53450;42.584;23.366;2023-11-21T02:50:41;2.20;83.43
66594;DHT22;53450;42.584;23.366;2023-11-21T02:53:09;2.10;83.58
66594;DHT22;53450;42.584;23.366;2023-11-21T02:55:36;2.14;83.90
66594;DHT22;53450;42.584;23.366;2023-11-21T02:58:02;2.05;83.47
66594;DHT22;53450;42.584;23.366;2023-11-21T03:00:29;1.97;83.78
66594;DHT22;53450;42.584;23.366;2023-11-21T03:02:55;1.96;84.17
66594;DHT22;53450;42.584;23.366;2023-11-21T03:05:21;2.03;84.43
66594;DHT22;53450;42.584;23.366;2023-11-21T03:07:47;2.05;83.81
66594;DHT22;53450;42.584;23.366;2023-11-21T03:10:13;2.00;83.97
66594;DHT22;53450;42.584;23.366;2023-11-21T03:12:39;1.95;84.20
66594;DHT22;53450;42.584;23.366;2023-11-21T03:15:06;1.95;84.35
66594;DHT22;53450;42.584;23.366;2023-11-21T03:17:32;1.97;84.41
66594;DHT22;53450;42.584;23.366;2023-11-21T03:19:59;1.90;84.54
66594;DHT22;53450;42.584;23.366;2023-11-21T03:22:25;1.89;84.59
66594;DHT22;53450;42.584;23.366;2023-11-21T03:24:51;1.87;84.57
66594;DHT22;53450;42.584;23.366;2023-11-21T03:27:18;1.90;84.62
66594;DHT22;53450;42.584;23.366;2023-11-21T03:29:43;1.99;84.76
66594;DHT22;53450;42.584;23.366;2023-11-21T03:32:10;1.93;84.74
66594;DHT22;53450;42.584;23.366;2023-11-21T03:34:53;1.96;85.05
66594;DHT22;53450;42.584;23.366;2023-11-21T03:37:20;2.05;85.18
66594;DHT22;53450;42.584;23.366;2023-11-21T03:39:46;2.11;85.16
66594;DHT22;53450;42.584;23.366;2023-11-21T03:42:11;2.16;84.18
66594;DHT22;53450;42.584;23.366;2023-11-21T03:44:37;2.14;84.21
66594;DHT22;53450;42.584;23.366;2023-11-21T03:47:03;2.18;84.01
66594;DHT22;53450;42.584;23.366;2023-11-21T03:49:28;2.13;83.91
66594;DHT22;53450;42.584;23.366;2023-11-21T03:51:56;2.14;84.00
66594;DHT22;53450;42.584;23.366;2023-11-21T03:54:21;2.17;83.76
66594;DHT22;53450;42.584;23.366;2023-11-21T03:56:47;2.09;83.95
66594;DHT22;53450;42.584;23.366;2023-11-21T03:59:12;2.11;84.21
66594;DHT22;53450;42.584;23.366;2023-11-21T04:01:38;2.06;84.36
66594;DHT22;53450;42.584;23.366;2023-11-21T04:04:03;2.13;84.85
66594;DHT22;53450;42.584;23.366;2023-11-21T04:06:29;2.18;84.67
66594;DHT22;53450;42.584;23.366;2023-11-21T04:08:55;2.11;84.71
66594;DHT22;53450;42.584;23.366;2023-11-21T04:11:20;2.23;84.75
66594;DHT22;53450;42.584;23.366;2023-11-21T04:13:46;2.27;84.22
66594;DHT22;53450;42.584;23.366;2023-11-21T04:16:12;2.26;84.06
66594;DHT22;53450;42.584;23.366;2023-11-21T04:18:38;2.24;84.29
66594;DHT22;53450;42.584;23.366;2023-11-21T04:21:05;2.24;84.26
66594;DHT22;53450;42.584;23.366;2023-11-21T04:23:31;2.26;84.35
66594;DHT22;53450;42.584;23.366;2023-11-21T04:25:57;2.28;84.42
66594;DHT22;53450;42.584;23.366;2023-11-21T04:28:23;2.31;84.27
66594;DHT22;53450;42.584;23.366;2023-11-21T04:30:50;2.27;84.29
66594;DHT22;53450;42.584;23.366;2023-11-21T04:33:17;2.24;84.50
66594;DHT22;53450;42.584;23.366;2023-11-21T04:35:42;2.33;84.38
66594;DHT22;53450;42.584;23.366;2023-11-21T04:38:08;2.27;84.38
66594;DHT22;53450;42.584;23.366;2023-11-21T04:40:33;2.30;84.47
66594;DHT22;53450;42.584;23.366;2023-11-21T04:42:59;2.21;84.46
66594;DHT22;53450;42.584;23.366;2023-11-21T04:45:25;2.21;84.80
66594;DHT22;53450;42.584;23.366;2023-11-21T04:47:50;2.21;84.17
66594;DHT22;53450;42.584;23.366;2023-11-21T04:50:16;2.17;84.16
66594;DHT22;53450;42.584;23.366;2023-11-21T04:52:42;2.07;84.37
66594;DHT22;53450;42.584;23.366;2023-11-21T04:55:08;2.13;83.61
66594;DHT22;53450;42.584;23.366;2023-11-21T04:57:38;2.10;84.17
66594;DHT22;53450;42.584;23.366;2023-11-21T05:00:08;2.03;84.18
66594;DHT22;53450;42.584;23.366;2023-11-21T05:02:34;2.02;84.12
66594;DHT22;53450;42.584;23.366;2023-11-21T05:05:01;2.05;83.94
66594;DHT22;53450;42.584;23.366;2023-11-21T05:07:26;2.07;83.72
66594;DHT22;53450;42.584;23.366;2023-11-21T05:09:55;2.14;83.88
66594;DHT22;53450;42.584;23.366;2023-11-21T05:12:24;2.16;84.49
66594;DHT22;53450;42.584;23.366;2023-11-21T05:14:50;2.17;84.61
66594;DHT22;53450;42.584;23.366;2023-11-21T05:17:16;2.18;84.51
66594;DHT22;53450;42.584;23.366;2023-11-21T05:19:42;2.28;84.74
66594;DHT22;53450;42.584;23.366;2023-11-21T05:22:08;2.30;85.00
66594;DHT22;53450;42.584;23.366;2023-11-21T05:24:34;2.28;85.26
66594;DHT22;53450;42.584;23.366;2023-11-21T05:27:00;2.35;85.41
66594;DHT22;53450;42.584;23.366;2023-11-21T05:29:26;2.37;85.52
66594;DHT22;53450;42.584;23.366;2023-11-21T05:31:51;2.44;84.82
66594;DHT22;53450;42.584;23.366;2023-11-21T05:34:18;2.40;84.71
66594;DHT22;53450;42.584;23.366;2023-11-21T05:36:44;2.37;84.84
66594;DHT22;53450;42.584;23.366;2023-11-21T05:39:11;2.40;85.09
66594;DHT22;53450;42.584;23.366;2023-11-21T05:41:37;2.44;85.05
66594;DHT22;53450;42.584;23.366;2023-11-21T05:44:02;2.51;84.43
66594;DHT22;53450;42.584;23.366;2023-11-21T05:46:28;2.44;84.48
66594;DHT22;53450;42.584;23.366;2023-11-21T05:48:54;2.45;84.59
66594;DHT22;53450;42.584;23.366;2023-11-21T05:51:20;2.47;84.77
66594;DHT22;53450;42.584;23.366;2023-11-21T05:53:45;2.49;85.01
66594;DHT22;53450;42.584;23.366;2023-11-21T05:56:12;2.58;84.77
66594;DHT22;53450;42.584;23.366;2023-11-21T05:58:39;2.57;84.84
66594;DHT22;53450;42.584;23.366;2023-11-21T06:01:05;2.58;84.83
66594;DHT22;53450;42.584;23.366;2023-11-21T06:03:35;2.65;84.40
66594;DHT22;53450;42.584;23.366;2023-11-21T06:06:00;2.59;84.51
66594;DHT22;53450;42.584;23.366;2023-11-21T06:08:26;2.72;84.71
66594;DHT22;53450;42.584;23.366;2023-11-21T06:10:51;2.76;84.16
66594;DHT22;53450;42.584;23.366;2023-11-21T06:13:17;2.72;84.43
66594;DHT22;53450;42.584;23.366;2023-11-21T06:15:49;2.89;84.62
66594;DHT22;53450;42.584;23.366;2023-11-21T06:18:15;2.99;84.23
66594;DHT22;53450;42.584;23.366;2023-11-21T06:20:41;3.03;84.50
66594;DHT22;53450;42.584;23.366;2023-11-21T06:23:06;3.19;84.27
66594;DHT22;53450;42.584;23.366;2023-11-21T06:25:32;3.22;83.98
66594;DHT22;53450;42.584;23.366;2023-11-21T06:28:02;3.20;84.19
66594;DHT22;53450;42.584;23.366;2023-11-21T06:30:27;3.33;83.79
66594;DHT22;53450;42.584;23.366;2023-11-21T06:32:54;3.40;83.65
66594;DHT22;53450;42.584;23.366;2023-11-21T06:35:20;3.45;83.55
66594;DHT22;53450;42.584;23.366;2023-11-21T06:37:46;3.53;83.35
66594;DHT22;53450;42.584;23.366;2023-11-21T06:40:13;3.68;83.08
66594;DHT22;53450;42.584;23.366;2023-11-21T06:42:41;3.77;82.88
66594;DHT22;53450;42.584;23.366;2023-11-21T06:45:07;3.84;83.07
66594;DHT22;53450;42.584;23.366;2023-11-21T06:47:33;4.01;83.26
66594;DHT22;53450;42.584;23.366;2023-11-21T06:49:59;4.16;82.86
66594;DHT22;53450;42.584;23.366;2023-11-21T06:52:25;4.36;81.53
66594;DHT22;53450;42.584;23.366;2023-11-21T06:54:51;4.37;81.49
66594;DHT22;53450;42.584;23.366;2023-11-21T06:57:17;4.53;81.70
66594;DHT22;53450;42.584;23.366;2023-11-21T06:59:43;4.73;80.40
66594;DHT22;53450;42.584;23.366;2023-11-21T07:02:08;4.81;79.82
66594;DHT22;53450;42.584;23.366;2023-11-21T07:04:38;4.91;79.84
66594;DHT22;53450;42.584;23.366;2023-11-21T07:07:04;5.07;79.18
66594;DHT22;53450;42.584;23.366;2023-11-21T07:09:30;5.16;78.83
66594;DHT22;53450;42.584;23.366;2023-11-21T07:11:56;5.28;78.26
66594;DHT22;53450;42.584;23.366;2023-11-21T07:14:22;5.36;77.82
66594;DHT22;53450;42.584;23.366;2023-11-21T07:16:47;5.38;78.27
66594;DHT22;53450;42.584;23.366;2023-11-21T07:19:13;5.42;78.60
66594;DHT22;53450;42.584;23.366;2023-11-21T07:21:40;5.62;78.32
66594;DHT22;53450;42.584;23.366;2023-11-21T07:24:06;5.67;77.75
66594;DHT22;53450;42.584;23.366;2023-11-21T07:26:33;5.70;78.45
66594;DHT22;53450;42.584;23.366;2023-11-21T07:29:00;5.90;77.86
66594;DHT22;53450;42.584;23.366;2023-11-21T07:31:26;5.83;77.21
66594;DHT22;53450;42.584;23.366;2023-11-21T07:33:52;5.97;77.06
66594;DHT22;53450;42.584;23.366;2023-11-21T07:36:19;6.07;76.51
66594;DHT22;53450;42.584;23.366;2023-11-21T07:38:46;5.98;76.29
66594;DHT22;53450;42.584;23.366;2023-11-21T07:41:12;6.25;76.43
66594;DHT22;53450;42.584;23.366;2023-11-21T07:43:41;6.36;75.71
66594;DHT22;53450;42.584;23.366;2023-11-21T07:46:07;6.42;75.84
66594;DHT22;53450;42.584;23.366;2023-11-21T07:48:33;6.45;75.48
66594;DHT22;53450;42.584;23.366;2023-11-21T07:51:00;6.57;73.82
66594;DHT22;53450;42.584;23.366;2023-11-21T07:53:26;6.65;73.86
66594;DHT22;53450;42.584;23.366;2023-11-21T07:55:54;6.63;74.01
66594;DHT22;53450;42.584;23.366;2023-11-21T07:58:20;6.79;73.74
66594;DHT22;53450;42.584;23.366;2023-11-21T08:00:46;6.89;73.37
66594;DHT22;53450;42.584;23.366;2023-11-21T08:03:15;6.79;73.51
66594;DHT22;53450;42.584;23.366;2023-11-21T08:05:41;6.75;73.91
66594;DHT22;53450;42.584;23.366;2023-11-21T08:08:07;6.79;76.22
66594;DHT22;53450;42.584;23.366;2023-11-21T08:10:33;6.94;76.01
66594;DHT22;53450;42.584;23.366;2023-11-21T08:12:59;6.91;76.09
66594;DHT22;53450;42.584;23.366;2023-11-21T08:15:24;7.08;74.91
66594;DHT22;53450;42.584;23.366;2023-11-21T08:17:50;7.14;73.52
66594;DHT22;53450;42.584;23.366;2023-11-21T08:20:16;7.28;74.08
66594;DHT22;53450;42.584;23.366;2023-11-21T08:22:42;7.48;73.42
66594;DHT22;53450;42.584;23.366;2023-11-21T08:25:08;7.48;71.32
66594;DHT22;53450;42.584;23.366;2023-11-21T08:27:34;7.51;71.38
66594;DHT22;53450;42.584;23.366;2023-11-21T08:30:00;7.58;71.15
66594;DHT22;53450;42.584;23.366;2023-11-21T08:32:26;7.80;70.61
66594;DHT22;53450;42.584;23.366;2023-11-21T08:34:52;7.91;69.53
66594;DHT22;53450;42.584;23.366;2023-11-21T08:37:17;7.73;71.30
66594;DHT22;53450;42.584;23.366;2023-11-21T08:39:47;7.80;70.35
66594;DHT22;53450;42.584;23.366;2023-11-21T08:42:14;7.86;70.97
66594;DHT22;53450;42.584;23.366;2023-11-21T08:44:40;7.93;68.76
66594;DHT22;53450;42.584;23.366;2023-11-21T08:47:07;7.90;69.23
66594;DHT22;53450;42.584;23.366;2023-11-21T08:49:32;7.87;69.46
66594;DHT22;53450;42.584;23.366;2023-11-21T08:52:00;7.96;70.36
66594;DHT22;53450;42.584;23.366;2023-11-21T08:54:26;7.96;70.19
66594;DHT22;53450;42.584;23.366;2023-11-21T08:56:53;7.99;71.28
66594;DHT22;53450;42.584;23.366;2023-11-21T08:59:20;7.96;71.56
66594;DHT22;53450;42.584;23.366;2023-11-21T09:01:46;7.75;71.64
66594;DHT22;53450;42.584;23.366;2023-11-21T09:04:12;7.91;71.07
66594;DHT22;53450;42.584;23.366;2023-11-21T09:06:39;8.06;69.63
66594;DHT22;53450;42.584;23.366;2023-11-21T09:09:05;8.06;70.51
66594;DHT22;53450;42.584;23.366;2023-11-21T09:11:34;8.04;70.32
66594;DHT22;53450;42.584;23.366;2023-11-21T09:14:01;7.90;71.43
66594;DHT22;53450;42.584;23.366;2023-11-21T09:16:26;7.80;73.34
66594;DHT22;53450;42.584;23.366;2023-11-21T09:18:52;7.52;74.54
66594;DHT22;53450;42.584;23.366;2023-11-21T09:21:18;7.68;74.09
66594;DHT22;53450;42.584;23.366;2023-11-21T09:23:46;7.73;74.32
66594;DHT22;53450;42.584;23.366;2023-11-21T09:26:12;7.96;73.10
66594;DHT22;53450;42.584;23.366;2023-11-21T09:28:38;8.04;72.99
66594;DHT22;53450;42.584;23.366;2023-11-21T09:31:05;8.17;72.11
66594;DHT22;53450;42.584;23.366;2023-11-21T09:33:30;8.27;70.68
66594;DHT22;53450;42.584;23.366;2023-11-21T09:35:57;8.13;71.89
66594;DHT22;53450;42.584;23.366;2023-11-21T09:38:23;7.66;72.76
66594;DHT22;53450;42.584;23.366;2023-11-21T09:40:49;7.20;74.38
66594;DHT22;53450;42.584;23.366;2023-11-21T09:43:18;7.28;74.30
66594;DHT22;53450;42.584;23.366;2023-11-21T09:45:48;7.38;75.26
66594;DHT22;53450;42.584;23.366;2023-11-21T09:48:16;7.44;71.69
66594;DHT22;53450;42.584;23.366;2023-11-21T09:50:43;7.70;71.42
66594;DHT22;53450;42.584;23.366;2023-11-21T09:55:42;8.07;69.77
66594;DHT22;53450;42.584;23.366;2023-11-21T09:58:09;8.28;69.18
66594;DHT22;53450;42.584;23.366;2023-11-21T10:00:42;8.45;68.85
66594;DHT22;53450;42.584;23.366;2023-11-21T10:03:09;8.23;70.79
66594;DHT22;53450;42.584;23.366;2023-11-21T10:05:35;8.04;72.40
66594;DHT22;53450;42.584;23.366;2023-11-21T10:08:04;7.99;72.07
66594;DHT22;53450;42.584;23.366;2023-11-21T10:10:32;8.17;72.13
66594;DHT22;53450;42.584;23.366;2023-11-21T10:13:02;8.34;70.91
66594;DHT22;53450;42.584;23.366;2023-11-21T10:15:29;8.49;70.87
66594;DHT22;53450;42.584;23.366;2023-11-21T10:17:55;8.67;69.94
66594;DHT22;53450;42.584;23.366;2023-11-21T10:20:23;8.78;69.39
66594;DHT22;53450;42.584;23.366;2023-11-21T10:22:50;8.72;68.62
66594;DHT22;53450;42.584;23.366;2023-11-21T10:25:15;8.75;68.08
66594;DHT22;53450;42.584;23.366;2023-11-21T10:27:42;8.73;68.53
66594;DHT22;53450;42.584;23.366;2023-11-21T10:30:09;8.90;67.58
66594;DHT22;53450;42.584;23.366;2023-11-21T10:32:41;8.79;68.08
66594;DHT22;53450;42.584;23.366;2023-11-21T10:35:08;8.72;68.41
66594;DHT22;53450;42.584;23.366;2023-11-21T10:37:39;8.76;68.37
66594;DHT22;53450;42.584;23.366;2023-11-21T10:40:09;8.83;68.10
66594;DHT22;53450;42.584;23.366;2023-11-21T10:42:38;8.76;68.00
66594;DHT22;53450;42.584;23.366;2023-11-21T10:45:05;8.68;68.99
66594;DHT22;53450;42.584;23.366;2023-11-21T10:47:38;8.68;69.23
66594;DHT22;53450;42.584;23.366;2023-11-21T10:50:05;8.64;70.06
66594;DHT22;53450;42.584;23.366;2023-11-21T10:52:31;8.71;69.46
66594;DHT22;53450;42.584;23.366;2023-11-21T10:54:56;8.65;69.05
66594;DHT22;53450;42.584;23.366;2023-11-21T10:57:24;8.71;69.83
66594;DHT22;53450;42.584;23.366;2023-11-21T10:59:54;8.55;70.26
66594;DHT22;53450;42.584;23.366;2023-11-21T11:02:26;8.71;69.82
66594;DHT22;53450;42.584;23.366;2023-11-21T11:04:54;8.89;68.50
66594;DHT22;53450;42.584;23.366;2023-11-21T11:07:26;8.99;67.96
66594;DHT22;53450;42.584;23.366;2023-11-21T11:09:56;9.03;68.08
66594;DHT22;53450;42.584;23.366;2023-11-21T11:12:24;8.96;66.99
66594;DHT22;53450;42.584;23.366;2023-11-21T11:14:51;9.10;68.03
66594;DHT22;53450;42.584;23.366;2023-11-21T11:17:17;9.05;68.78
66594;DHT22;53450;42.584;23.366;2023-11-21T11:19:46;8.80;70.48
66594;DHT22;53450;42.584;23.366;2023-11-21T11:22:40;8.79;71.01
66594;DHT22;53450;42.584;23.366;2023-11-21T11:27:52;8.92;69.27
66594;DHT22;53450;42.584;23.366;2023-11-21T11:37:49;9.02;68.41
66594;DHT22;53450;42.584;23.366;2023-11-21T11:40:14;8.90;69.33
66594;DHT22;53450;42.584;23.366;2023-11-21T11:42:56;8.92;69.81
66594;DHT22;53450;42.584;23.366;2023-11-21T11:45:26;9.02;70.33
66594;DHT22;53450;42.584;23.366;2023-11-21T11:47:57;9.13;69.09
66594;DHT22;53450;42.584;23.366;2023-11-21T11:50:23;9.20;69.91
66594;DHT22;53450;42.584;23.366;2023-11-21T11:52:51;9.09;68.54
66594;DHT22;53450;42.584;23.366;2023-11-21T11:55:20;9.10;69.38
66594;DHT22;53450;42.584;23.366;2023-11-21T11:57:51;8.85;69.40
66594;DHT22;53450;42.584;23.366;2023-11-21T12:00:21;8.73;70.83
66594;DHT22;53450;42.584;23.366;2023-11-21T12:02:52;8.73;69.84
66594;DHT22;53450;42.584;23.366;2023-11-21T12:05:19;8.55;69.71
66594;DHT22;53450;42.584;23.366;2023-11-21T12:07:53;8.40;70.47
66594;DHT22;53450;42.584;23.366;2023-11-21T12:10:35;8.49;71.90
66594;DHT22;53450;42.584;23.366;2023-11-21T12:13:04;8.44;71.94
66594;DHT22;53450;42.584;23.366;2023-11-21T12:15:31;8.45;71.22
66594;DHT22;53450;42.584;23.366;2023-11-21T12:17:57;8.49;71.12
66594;DHT22;53450;42.584;23.366;2023-11-21T12:20:25;8.52;70.96
66594;DHT22;53450;42.584;23.366;2023-11-21T12:22:55;8.47;71.38
66594;DHT22;53450;42.584;23.366;2023-11-21T12:25:24;8.45;71.17
66594;DHT22;53450;42.584;23.366;2023-11-21T12:27:52;8.49;71.74
66594;DHT22;53450;42.584;23.366;2023-11-21T12:30:22;8.62;71.21
66594;DHT22;53450;42.584;23.366;2023-11-21T12:32:50;8.73;69.35
66594;DHT22;53450;42.584;23.366;2023-11-21T12:35:23;8.57;70.60
66594;DHT22;53450;42.584;23.366;2023-11-21T12:37:50;8.38;71.64
66594;DHT22;53450;42.584;23.366;2023-11-21T12:40:17;8.51;70.41
66594;DHT22;53450;42.584;23.366;2023-11-21T12:42:52;8.59;68.09
66594;DHT22;53450;42.584;23.366;2023-11-21T12:45:20;8.55;69.75
66594;DHT22;53450;42.584;23.366;2023-11-21T12:47:48;8.65;69.03
66594;DHT22;53450;42.584;23.366;2023-11-21T12:50:15;8.71;69.16
66594;DHT22;53450;42.584;23.366;2023-11-21T12:52:42;8.65;69.41
66594;DHT22;53450;42.584;23.366;2023-11-21T12:55:18;8.47;70.41
66594;DHT22;53450;42.584;23.366;2023-11-21T12:57:45;8.57;70.36
66594;DHT22;53450;42.584;23.366;2023-11-21T13:00:12;8.73;70.67
66594;DHT22;53450;42.584;23.366;2023-11-21T13:02:41;8.58;71.43
66594;DHT22;53450;42.584;23.366;2023-11-21T13:05:09;8.69;71.31
66594;DHT22;53450;42.584;23.366;2023-11-21T13:07:44;8.59;70.85
66594;DHT22;53450;42.584;23.366;2023-11-21T13:10:16;8.28;71.96
66594;DHT22;53450;42.584;23.366;2023-11-21T13:12:45;8.28;71.94
66594;DHT22;53450;42.584;23.366;2023-11-21T13:15:16;8.26;72.28
66594;DHT22;53450;42.584;23.366;2023-11-21T13:17:45;8.26;72.00
66594;DHT22;53450;42.584;23.366;2023-11-21T13:20:16;8.31;71.98
66594;DHT22;53450;42.584;23.366;2023-11-21T13:22:49;8.21;72.85
66594;DHT22;53450;42.584;23.366;2023-11-21T13:25:16;8.52;70.92
66594;DHT22;53450;42.584;23.366;2023-11-21T13:27:46;8.44;71.22
66594;DHT22;53450;42.584;23.366;2023-11-21T13:30:13;8.28;72.12
66594;DHT22;53450;42.584;23.366;2023-11-21T13:32:45;8.16;72.46
66594;DHT22;53450;42.584;23.366;2023-11-21T13:35:17;8.07;73.21
66594;DHT22;53450;42.584;23.366;2023-11-21T13:37:50;8.09;73.63
66594;DHT22;53450;42.584;23.366;2023-11-21T13:40:19;8.01;73.31
66594;DHT22;53450;42.584;23.366;2023-11-21T13:42:49;8.00;73.11
66594;DHT22;53450;42.584;23.366;2023-11-21T13:45:14;7.99;73.63
66594;DHT22;53450;42.584;23.366;2023-11-21T13:47:42;7.86;74.34
66594;DHT22;53450;42.584;23.366;2023-11-21T13:50:07;8.16;73.07
66594;DHT22;53450;42.584;23.366;2023-11-21T13:52:43;7.99;74.27
66594;DHT22;53450;42.584;23.366;2023-11-21T13:55:12;7.83;74.46
66594;DHT22;53450;42.584;23.366;2023-11-21T13:57:42;7.96;74.35
66594;DHT22;53450;42.584;23.366;2023-11-21T14:02:15;7.82;74.59
66594;DHT22;53450;42.584;23.366;2023-11-21T14:04:44;7.86;75.16
66594;DHT22;53450;42.584;23.366;2023-11-21T14:07:26;7.82;74.76
66594;DHT22;53450;42.584;23.366;2023-11-21T14:10:11;7.91;74.79
66594;DHT22;53450;42.584;23.366;2023-11-21T14:12:39;7.86;74.75
66594;DHT22;53450;42.584;23.366;2023-11-21T14:15:08;7.83;74.89
66594;DHT22;53450;42.584;23.366;2023-11-21T14:17:35;7.87;75.44
66594;DHT22;53450;42.584;23.366;2023-11-21T14:20:03;7.96;74.42
66594;DHT22;53450;42.584;23.366;2023-11-21T14:22:30;7.97;74.20
66594;DHT22;53450;42.584;23.366;2023-11-21T14:24:56;7.94;74.37
66594;DHT22;53450;42.584;23.366;2023-11-21T14:27:25;7.85;75.15
66594;DHT22;53450;42.584;23.366;2023-11-21T14:29:51;7.73;74.88
66594;DHT22;53450;42.584;23.366;2023-11-21T14:32:17;7.80;74.66
66594;DHT22;53450;42.584;23.366;2023-11-21T14:34:43;7.90;74.44
66594;DHT22;53450;42.584;23.366;2023-11-21T14:37:12;8.03;74.39
66594;DHT22;53450;42.584;23.366;2023-11-21T14:39:39;8.10;74.85
66594;DHT22;53450;42.584;23.366;2023-11-21T14:42:09;8.14;74.69
66594;DHT22;53450;42.584;23.366;2023-11-21T14:44:35;8.00;75.39
66594;DHT22;53450;42.584;23.366;2023-11-21T14:47:05;7.93;75.61
66594;DHT22;53450;42.584;23.366;2023-11-21T14:49:41;8.03;75.46
66594;DHT22;53450;42.584;23.366;2023-11-21T14:52:21;7.91;75.79
66594;DHT22;53450;42.584;23.366;2023-11-21T14:55:03;7.94;75.79
66594;DHT22;53450;42.584;23.366;2023-11-21T14:57:47;7.96;76.28
66594;DHT22;53450;42.584;23.366;2023-11-21T15:00:20;7.86;76.32
66594;DHT22;53450;42.584;23.366;2023-11-21T15:03:02;7.63;77.18
66594;DHT22;53450;42.584;23.366;2023-11-21T15:05:28;7.78;77.17
66594;DHT22;53450;42.584;23.366;2023-11-21T15:07:55;7.75;77.04
66594;DHT22;53450;42.584;23.366;2023-11-21T15:10:36;7.83;76.08
66594;DHT22;53450;42.584;23.366;2023-11-21T15:13:13;7.97;75.81
66594;DHT22;53450;42.584;23.366;2023-11-21T15:15:41;7.99;75.97
66594;DHT22;53450;42.584;23.366;2023-11-21T15:18:07;7.97;76.17
66594;DHT22;53450;42.584;23.366;2023-11-21T15:20:33;7.97;76.43
66594;DHT22;53450;42.584;23.366;2023-11-21T15:22:58;7.85;76.71
66594;DHT22;53450;42.584;23.366;2023-11-21T15:25:25;7.76;77.14
66594;DHT22;53450;42.584;23.366;2023-11-21T15:27:51;7.73;77.03
66594;DHT22;53450;42.584;23.366;2023-11-21T15:30:16;7.65;77.33
66594;DHT22;53450;42.584;23.366;2023-11-21T15:32:48;7.63;76.97
66594;DHT22;53450;42.584;23.366;2023-11-21T15:35:14;7.51;77.31
66594;DHT22;53450;42.584;23.366;2023-11-21T15:37:40;7.59;77.37
66594;DHT22;53450;42.584;23.366;2023-11-21T15:40:06;7.59;77.13
66594;DHT22;53450;42.584;23.366;2023-11-21T15:42:34;7.52;77.12
66594;DHT22;53450;42.584;23.366;2023-11-21T15:45:01;7.54;77.29
66594;DHT22;53450;42.584;23.366;2023-11-21T15:47:27;7.49;77.09